sensor_id;sensor_type;location;lat;lon;timestamp;P1;durP1;ratioP1;P2;durP2;ratioP2
69910;SDS011;57194;50.156;14.518;2022-07-29T00:01:14;5.72;;;1.77;;
69910;SDS011;57194;50.156;14.518;2022-07-29T00:03:40;5.57;;;1.57;;
69910;SDS011;57194;50.156;14.518;2022-07-29T00:06:05;7.43;;;1.70;;
69910;SDS011;57194;50.156;14.518;2022-07-29T00:08:31;3.40;;;1.50;;
69910;SDS011;57194;50.156;14.518;2022-07-29T00:10:56;6.03;;;1.67;;
69910;SDS011;57194;50.156;14.518;2022-07-29T00:13:21;8.83;;;2.10;;
69910;SDS011;57194;50.156;14.518;2022-07-29T00:15:46;4.33;;;1.60;;
69910;SDS011;57194;50.156;14.518;2022-07-29T00:18:12;5.57;;;2.13;;
69910;SDS011;57194;50.156;14.518;2022-07-29T00:20:37;4.73;;;1.50;;
69910;SDS011;57194;50.156;14.518;2022-07-29T00:23:02;5.85;;;1.70;;
69910;SDS011;57194;50.156;14.518;2022-07-29T00:25:28;4.75;;;1.85;;
69910;SDS011;57194;50.156;14.518;2022-07-29T00:27:53;5.83;;;2.20;;
69910;SDS011;57194;50.156;14.518;2022-07-29T00:30:18;5.03;;;1.60;;
69910;SDS011;57194;50.156;14.518;2022-07-29T00:32:44;6.70;;;1.70;;
69910;SDS011;57194;50.156;14.518;2022-07-29T00:35:10;4.60;;;1.80;;
69910;SDS011;57194;50.156;14.518;2022-07-29T00:37:54;7.60;;;1.88;;
69910;SDS011;57194;50.156;14.518;2022-07-29T00:40:20;3.77;;;1.50;;
69910;SDS011;57194;50.156;14.518;2022-07-29T00:42:46;4.82;;;1.48;;
69910;SDS011;57194;50.156;14.518;2022-07-29T00:45:16;5.13;;;1.60;;
69910;SDS011;57194;50.156;14.518;2022-07-29T00:47:42;5.63;;;1.63;;
69910;SDS011;57194;50.156;14.518;2022-07-29T00:50:09;7.30;;;2.00;;
69910;SDS011;57194;50.156;14.518;2022-07-29T00:52:37;4.97;;;1.70;;
69910;SDS011;57194;50.156;14.518;2022-07-29T00:55:04;3.70;;;1.35;;
69910;SDS011;57194;50.156;14.518;2022-07-29T00:57:30;4.88;;;1.60;;
69910;SDS011;57194;50.156;14.518;2022-07-29T00:59:56;7.10;;;1.70;;
69910;SDS011;57194;50.156;14.518;2022-07-29T01:02:22;4.50;;;1.50;;
69910;SDS011;57194;50.156;14.518;2022-07-29T01:04:47;7.33;;;1.73;;
69910;SDS011;57194;50.156;14.518;2022-07-29T01:07:13;5.53;;;1.83;;
69910;SDS011;57194;50.156;14.518;2022-07-29T01:09:40;4.05;;;1.70;;
69910;SDS011;57194;50.156;14.518;2022-07-29T01:12:07;5.82;;;1.88;;
69910;SDS011;57194;50.156;14.518;2022-07-29T01:14:33;5.23;;;1.60;;
69910;SDS011;57194;50.156;14.518;2022-07-29T01:17:02;5.13;;;1.90;;
69910;SDS011;57194;50.156;14.518;2022-07-29T01:30:10;4.57;;;1.80;;
69910;SDS011;57194;50.156;14.518;2022-07-29T01:32:37;6.78;;;1.80;;
69910;SDS011;57194;50.156;14.518;2022-07-29T01:35:19;5.72;;;1.80;;
69910;SDS011;57194;50.156;14.518;2022-07-29T01:38:01;3.72;;;1.50;;
69910;SDS011;57194;50.156;14.518;2022-07-29T01:40:43;4.50;;;1.75;;
69910;SDS011;57194;50.156;14.518;2022-07-29T01:43:14;5.97;;;1.63;;
69910;SDS011;57194;50.156;14.518;2022-07-29T01:45:45;6.15;;;1.80;;
69910;SDS011;57194;50.156;14.518;2022-07-29T01:48:18;6.88;;;1.77;;
69910;SDS011;57194;50.156;14.518;2022-07-29T01:50:57;3.58;;;1.65;;
69910;SDS011;57194;50.156;14.518;2022-07-29T01:53:29;7.45;;;1.88;;
69910;SDS011;57194;50.156;14.518;2022-07-29T01:55:59;3.13;;;1.47;;
69910;SDS011;57194;50.156;14.518;2022-07-29T01:58:27;5.95;;;1.92;;
69910;SDS011;57194;50.156;14.518;2022-07-29T02:00:55;8.38;;;1.90;;
69910;SDS011;57194;50.156;14.518;2022-07-29T02:03:23;8.55;;;1.77;;
69910;SDS011;57194;50.156;14.518;2022-07-29T02:05:51;4.53;;;1.52;;
69910;SDS011;57194;50.156;14.518;2022-07-29T02:08:17;6.53;;;1.97;;
69910;SDS011;57194;50.156;14.518;2022-07-29T02:10:44;3.60;;;1.50;;
69910;SDS011;57194;50.156;14.518;2022-07-29T02:13:12;4.75;;;1.70;;
69910;SDS011;57194;50.156;14.518;2022-07-29T02:15:40;4.75;;;1.77;;
69910;SDS011;57194;50.156;14.518;2022-07-29T02:18:08;6.68;;;1.63;;
69910;SDS011;57194;50.156;14.518;2022-07-29T02:20:38;5.13;;;1.60;;
69910;SDS011;57194;50.156;14.518;2022-07-29T02:23:05;5.25;;;1.52;;
69910;SDS011;57194;50.156;14.518;2022-07-29T02:25:32;5.20;;;2.03;;
69910;SDS011;57194;50.156;14.518;2022-07-29T02:27:57;5.50;;;2.00;;
69910;SDS011;57194;50.156;14.518;2022-07-29T02:30:25;4.22;;;1.42;;
69910;SDS011;57194;50.156;14.518;2022-07-29T02:32:52;10.80;;;1.80;;
69910;SDS011;57194;50.156;14.518;2022-07-29T02:35:18;5.80;;;1.73;;
69910;SDS011;57194;50.156;14.518;2022-07-29T02:37:46;4.70;;;1.60;;
69910;SDS011;57194;50.156;14.518;2022-07-29T02:40:35;7.63;;;1.90;;
69910;SDS011;57194;50.156;14.518;2022-07-29T02:43:04;3.38;;;1.50;;
69910;SDS011;57194;50.156;14.518;2022-07-29T02:45:32;4.03;;;1.50;;
69910;SDS011;57194;50.156;14.518;2022-07-29T02:47:58;3.75;;;1.45;;
69910;SDS011;57194;50.156;14.518;2022-07-29T02:50:30;5.53;;;2.03;;
69910;SDS011;57194;50.156;14.518;2022-07-29T02:53:03;4.78;;;1.70;;
69910;SDS011;57194;50.156;14.518;2022-07-29T02:55:42;5.38;;;1.73;;
69910;SDS011;57194;50.156;14.518;2022-07-29T02:58:14;5.40;;;1.88;;
69910;SDS011;57194;50.156;14.518;2022-07-29T03:00:47;4.50;;;1.70;;
69910;SDS011;57194;50.156;14.518;2022-07-29T03:03:15;6.40;;;1.63;;
69910;SDS011;57194;50.156;14.518;2022-07-29T03:05:42;4.78;;;1.85;;
69910;SDS011;57194;50.156;14.518;2022-07-29T03:08:08;4.88;;;1.40;;
69910;SDS011;57194;50.156;14.518;2022-07-29T03:10:35;4.93;;;1.75;;
69910;SDS011;57194;50.156;14.518;2022-07-29T03:13:03;5.28;;;1.90;;
69910;SDS011;57194;50.156;14.518;2022-07-29T03:15:30;3.67;;;1.60;;
69910;SDS011;57194;50.156;14.518;2022-07-29T03:17:56;3.65;;;1.60;;
69910;SDS011;57194;50.156;14.518;2022-07-29T03:20:21;5.70;;;1.98;;
69910;SDS011;57194;50.156;14.518;2022-07-29T03:22:47;8.30;;;1.70;;
69910;SDS011;57194;50.156;14.518;2022-07-29T03:25:13;3.67;;;1.58;;
69910;SDS011;57194;50.156;14.518;2022-07-29T03:27:40;5.70;;;1.60;;
69910;SDS011;57194;50.156;14.518;2022-07-29T03:30:07;3.50;;;1.73;;
69910;SDS011;57194;50.156;14.518;2022-07-29T03:32:34;4.20;;;1.50;;
69910;SDS011;57194;50.156;14.518;2022-07-29T03:34:59;5.05;;;1.67;;
69910;SDS011;57194;50.156;14.518;2022-07-29T03:37:25;4.43;;;1.50;;
69910;SDS011;57194;50.156;14.518;2022-07-29T03:39:51;5.78;;;1.67;;
69910;SDS011;57194;50.156;14.518;2022-07-29T03:42:19;5.50;;;1.80;;
69910;SDS011;57194;50.156;14.518;2022-07-29T03:44:48;5.80;;;1.80;;
69910;SDS011;57194;50.156;14.518;2022-07-29T03:47:16;6.05;;;1.90;;
69910;SDS011;57194;50.156;14.518;2022-07-29T03:49:44;4.80;;;1.80;;
69910;SDS011;57194;50.156;14.518;2022-07-29T03:52:14;7.90;;;1.85;;
69910;SDS011;57194;50.156;14.518;2022-07-29T03:54:40;3.80;;;1.85;;
69910;SDS011;57194;50.156;14.518;2022-07-29T03:57:05;5.72;;;1.92;;
69910;SDS011;57194;50.156;14.518;2022-07-29T03:59:32;5.22;;;1.70;;
69910;SDS011;57194;50.156;14.518;2022-07-29T04:01:59;6.27;;;1.70;;
69910;SDS011;57194;50.156;14.518;2022-07-29T04:04:27;3.33;;;1.40;;
69910;SDS011;57194;50.156;14.518;2022-07-29T04:06:52;5.93;;;1.70;;
69910;SDS011;57194;50.156;14.518;2022-07-29T04:09:18;5.13;;;1.60;;
69910;SDS011;57194;50.156;14.518;2022-07-29T04:11:43;5.05;;;1.70;;
69910;SDS011;57194;50.156;14.518;2022-07-29T04:14:09;8.23;;;1.83;;
69910;SDS011;57194;50.156;14.518;2022-07-29T04:16:35;4.82;;;1.83;;
69910;SDS011;57194;50.156;14.518;2022-07-29T04:19:00;4.47;;;1.50;;
69910;SDS011;57194;50.156;14.518;2022-07-29T04:21:26;5.77;;;1.70;;
69910;SDS011;57194;50.156;14.518;2022-07-29T04:23:51;5.73;;;1.90;;
69910;SDS011;57194;50.156;14.518;2022-07-29T04:26:17;5.03;;;1.80;;
69910;SDS011;57194;50.156;14.518;2022-07-29T04:28:42;5.22;;;1.90;;
69910;SDS011;57194;50.156;14.518;2022-07-29T04:31:08;4.37;;;1.63;;
69910;SDS011;57194;50.156;14.518;2022-07-29T04:33:34;5.00;;;1.90;;
69910;SDS011;57194;50.156;14.518;2022-07-29T04:35:59;10.20;;;1.80;;
69910;SDS011;57194;50.156;14.518;2022-07-29T04:38:24;7.67;;;2.10;;
69910;SDS011;57194;50.156;14.518;2022-07-29T04:40:50;4.83;;;1.57;;
69910;SDS011;57194;50.156;14.518;2022-07-29T04:43:15;5.43;;;1.90;;
69910;SDS011;57194;50.156;14.518;2022-07-29T04:45:41;5.40;;;1.70;;
69910;SDS011;57194;50.156;14.518;2022-07-29T04:48:07;5.78;;;1.75;;
69910;SDS011;57194;50.156;14.518;2022-07-29T04:50:33;4.87;;;1.67;;
69910;SDS011;57194;50.156;14.518;2022-07-29T04:52:58;5.13;;;2.40;;
69910;SDS011;57194;50.156;14.518;2022-07-29T04:55:24;4.60;;;1.70;;
69910;SDS011;57194;50.156;14.518;2022-07-29T04:57:50;3.77;;;1.67;;
69910;SDS011;57194;50.156;14.518;2022-07-29T05:00:15;4.57;;;1.70;;
69910;SDS011;57194;50.156;14.518;2022-07-29T05:02:41;9.03;;;1.70;;
69910;SDS011;57194;50.156;14.518;2022-07-29T05:05:07;7.22;;;1.98;;
69910;SDS011;57194;50.156;14.518;2022-07-29T05:07:32;4.60;;;1.92;;
69910;SDS011;57194;50.156;14.518;2022-07-29T05:09:58;12.97;;;2.03;;
69910;SDS011;57194;50.156;14.518;2022-07-29T05:12:23;5.27;;;1.60;;
69910;SDS011;57194;50.156;14.518;2022-07-29T05:14:49;6.35;;;1.77;;
69910;SDS011;57194;50.156;14.518;2022-07-29T05:17:15;4.13;;;1.90;;
69910;SDS011;57194;50.156;14.518;2022-07-29T05:19:40;5.30;;;1.90;;
69910;SDS011;57194;50.156;14.518;2022-07-29T05:22:05;5.57;;;2.00;;
69910;SDS011;57194;50.156;14.518;2022-07-29T05:24:31;5.85;;;1.70;;
69910;SDS011;57194;50.156;14.518;2022-07-29T05:26:56;4.60;;;1.80;;
69910;SDS011;57194;50.156;14.518;2022-07-29T05:29:21;4.37;;;2.00;;
69910;SDS011;57194;50.156;14.518;2022-07-29T05:31:47;5.23;;;1.90;;
69910;SDS011;57194;50.156;14.518;2022-07-29T05:34:12;5.93;;;1.97;;
69910;SDS011;57194;50.156;14.518;2022-07-29T05:36:38;3.53;;;1.70;;
69910;SDS011;57194;50.156;14.518;2022-07-29T05:39:03;5.50;;;1.30;;
69910;SDS011;57194;50.156;14.518;2022-07-29T05:41:31;8.07;;;1.70;;
69910;SDS011;57194;50.156;14.518;2022-07-29T05:43:57;4.20;;;1.70;;
69910;SDS011;57194;50.156;14.518;2022-07-29T05:46:23;4.65;;;1.73;;
69910;SDS011;57194;50.156;14.518;2022-07-29T05:48:48;5.77;;;1.50;;
69910;SDS011;57194;50.156;14.518;2022-07-29T05:51:14;5.87;;;1.60;;
69910;SDS011;57194;50.156;14.518;2022-07-29T05:53:39;6.87;;;1.80;;
69910;SDS011;57194;50.156;14.518;2022-07-29T05:56:05;6.45;;;1.63;;
69910;SDS011;57194;50.156;14.518;2022-07-29T05:58:30;3.33;;;1.50;;
69910;SDS011;57194;50.156;14.518;2022-07-29T06:00:56;5.30;;;1.52;;
69910;SDS011;57194;50.156;14.518;2022-07-29T06:03:24;5.83;;;1.83;;
69910;SDS011;57194;50.156;14.518;2022-07-29T06:05:50;3.92;;;1.80;;
69910;SDS011;57194;50.156;14.518;2022-07-29T06:08:15;4.63;;;1.70;;
69910;SDS011;57194;50.156;14.518;2022-07-29T06:10:40;5.03;;;2.00;;
69910;SDS011;57194;50.156;14.518;2022-07-29T06:13:06;8.30;;;1.70;;
69910;SDS011;57194;50.156;14.518;2022-07-29T06:15:31;5.63;;;1.70;;
69910;SDS011;57194;50.156;14.518;2022-07-29T06:17:57;7.93;;;1.80;;
69910;SDS011;57194;50.156;14.518;2022-07-29T06:20:22;5.60;;;1.90;;
69910;SDS011;57194;50.156;14.518;2022-07-29T06:22:47;4.40;;;1.67;;
69910;SDS011;57194;50.156;14.518;2022-07-29T06:25:13;3.70;;;1.83;;
69910;SDS011;57194;50.156;14.518;2022-07-29T06:27:38;6.03;;;1.90;;
69910;SDS011;57194;50.156;14.518;2022-07-29T06:30:03;5.60;;;1.83;;
69910;SDS011;57194;50.156;14.518;2022-07-29T06:32:32;5.35;;;1.77;;
69910;SDS011;57194;50.156;14.518;2022-07-29T06:34:57;5.37;;;1.77;;
69910;SDS011;57194;50.156;14.518;2022-07-29T06:37:23;3.85;;;1.73;;
69910;SDS011;57194;50.156;14.518;2022-07-29T06:39:48;4.73;;;2.00;;
69910;SDS011;57194;50.156;14.518;2022-07-29T06:42:33;3.83;;;1.80;;
69910;SDS011;57194;50.156;14.518;2022-07-29T06:44:59;6.25;;;2.00;;
69910;SDS011;57194;50.156;14.518;2022-07-29T06:47:24;4.87;;;2.47;;
69910;SDS011;57194;50.156;14.518;2022-07-29T06:49:51;4.93;;;2.30;;
69910;SDS011;57194;50.156;14.518;2022-07-29T06:52:16;4.03;;;1.90;;
69910;SDS011;57194;50.156;14.518;2022-07-29T06:54:41;5.73;;;2.10;;
69910;SDS011;57194;50.156;14.518;2022-07-29T06:57:12;6.28;;;2.38;;
69910;SDS011;57194;50.156;14.518;2022-07-29T06:59:38;7.47;;;1.93;;
69910;SDS011;57194;50.156;14.518;2022-07-29T07:02:03;8.73;;;1.90;;
69910;SDS011;57194;50.156;14.518;2022-07-29T07:04:28;5.47;;;2.00;;
69910;SDS011;57194;50.156;14.518;2022-07-29T07:06:54;5.60;;;1.70;;
69910;SDS011;57194;50.156;14.518;2022-07-29T07:09:20;7.60;;;2.20;;
69910;SDS011;57194;50.156;14.518;2022-07-29T07:11:46;9.18;;;2.15;;
69910;SDS011;57194;50.156;14.518;2022-07-29T07:14:11;5.97;;;2.50;;
69910;SDS011;57194;50.156;14.518;2022-07-29T07:16:36;6.40;;;2.37;;
69910;SDS011;57194;50.156;14.518;2022-07-29T07:19:02;6.73;;;2.10;;
69910;SDS011;57194;50.156;14.518;2022-07-29T07:21:27;6.67;;;1.87;;
69910;SDS011;57194;50.156;14.518;2022-07-29T07:23:53;6.22;;;2.22;;
69910;SDS011;57194;50.156;14.518;2022-07-29T07:26:18;6.70;;;2.03;;
69910;SDS011;57194;50.156;14.518;2022-07-29T07:28:43;5.37;;;2.20;;
69910;SDS011;57194;50.156;14.518;2022-07-29T07:31:09;5.13;;;1.90;;
69910;SDS011;57194;50.156;14.518;2022-07-29T07:33:35;6.75;;;2.00;;
69910;SDS011;57194;50.156;14.518;2022-07-29T07:36:00;4.97;;;1.80;;
69910;SDS011;57194;50.156;14.518;2022-07-29T07:38:26;6.53;;;2.10;;
69910;SDS011;57194;50.156;14.518;2022-07-29T07:40:51;6.40;;;2.27;;
69910;SDS011;57194;50.156;14.518;2022-07-29T07:43:16;4.32;;;1.95;;
69910;SDS011;57194;50.156;14.518;2022-07-29T07:45:42;4.13;;;1.93;;
69910;SDS011;57194;50.156;14.518;2022-07-29T07:48:07;5.73;;;1.80;;
69910;SDS011;57194;50.156;14.518;2022-07-29T07:50:35;5.13;;;2.00;;
69910;SDS011;57194;50.156;14.518;2022-07-29T07:53:00;6.13;;;1.90;;
69910;SDS011;57194;50.156;14.518;2022-07-29T07:55:27;4.50;;;2.08;;
69910;SDS011;57194;50.156;14.518;2022-07-29T07:57:53;5.90;;;1.97;;
69910;SDS011;57194;50.156;14.518;2022-07-29T08:00:19;4.50;;;2.08;;
69910;SDS011;57194;50.156;14.518;2022-07-29T08:02:44;6.72;;;2.30;;
69910;SDS011;57194;50.156;14.518;2022-07-29T08:05:10;5.80;;;2.10;;
69910;SDS011;57194;50.156;14.518;2022-07-29T08:07:37;7.93;;;2.15;;
69910;SDS011;57194;50.156;14.518;2022-07-29T08:10:02;6.57;;;2.20;;
69910;SDS011;57194;50.156;14.518;2022-07-29T08:12:28;8.75;;;2.20;;
69910;SDS011;57194;50.156;14.518;2022-07-29T08:14:53;5.43;;;2.17;;
69910;SDS011;57194;50.156;14.518;2022-07-29T08:17:19;8.07;;;2.17;;
69910;SDS011;57194;50.156;14.518;2022-07-29T08:19:44;5.50;;;1.80;;
69910;SDS011;57194;50.156;14.518;2022-07-29T08:22:10;8.38;;;2.60;;
69910;SDS011;57194;50.156;14.518;2022-07-29T08:24:35;5.73;;;2.30;;
69910;SDS011;57194;50.156;14.518;2022-07-29T08:27:20;5.47;;;2.05;;
69910;SDS011;57194;50.156;14.518;2022-07-29T08:29:45;6.05;;;2.40;;
69910;SDS011;57194;50.156;14.518;2022-07-29T08:32:11;6.83;;;2.60;;
69910;SDS011;57194;50.156;14.518;2022-07-29T08:34:37;5.43;;;2.30;;
69910;SDS011;57194;50.156;14.518;2022-07-29T08:37:02;6.82;;;1.90;;
69910;SDS011;57194;50.156;14.518;2022-07-29T08:39:27;4.73;;;2.03;;
69910;SDS011;57194;50.156;14.518;2022-07-29T08:41:53;5.93;;;1.93;;
69910;SDS011;57194;50.156;14.518;2022-07-29T08:44:19;10.50;;;2.83;;
69910;SDS011;57194;50.156;14.518;2022-07-29T08:46:46;5.80;;;2.17;;
69910;SDS011;57194;50.156;14.518;2022-07-29T08:49:12;6.90;;;2.13;;
69910;SDS011;57194;50.156;14.518;2022-07-29T08:51:41;9.37;;;2.30;;
69910;SDS011;57194;50.156;14.518;2022-07-29T08:54:09;4.20;;;2.17;;
69910;SDS011;57194;50.156;14.518;2022-07-29T08:56:35;11.30;;;2.83;;
69910;SDS011;57194;50.156;14.518;2022-07-29T08:59:02;5.07;;;2.50;;
69910;SDS011;57194;50.156;14.518;2022-07-29T09:01:29;7.82;;;2.25;;
69910;SDS011;57194;50.156;14.518;2022-07-29T09:03:58;6.78;;;2.40;;
69910;SDS011;57194;50.156;14.518;2022-07-29T09:06:26;8.07;;;2.60;;
69910;SDS011;57194;50.156;14.518;2022-07-29T09:08:58;8.85;;;2.30;;
69910;SDS011;57194;50.156;14.518;2022-07-29T09:11:25;4.70;;;2.40;;
69910;SDS011;57194;50.156;14.518;2022-07-29T09:13:50;7.07;;;2.30;;
69910;SDS011;57194;50.156;14.518;2022-07-29T09:16:16;5.53;;;2.80;;
69910;SDS011;57194;50.156;14.518;2022-07-29T09:18:42;4.23;;;2.77;;
69910;SDS011;57194;50.156;14.518;2022-07-29T09:21:10;5.50;;;2.20;;
69910;SDS011;57194;50.156;14.518;2022-07-29T09:24:13;5.75;;;2.42;;
69910;SDS011;57194;50.156;14.518;2022-07-29T09:26:43;5.75;;;2.20;;
69910;SDS011;57194;50.156;14.518;2022-07-29T09:31:37;7.53;;;2.50;;
69910;SDS011;57194;50.156;14.518;2022-07-29T09:34:04;9.18;;;2.63;;
69910;SDS011;57194;50.156;14.518;2022-07-29T09:36:30;5.60;;;2.20;;
69910;SDS011;57194;50.156;14.518;2022-07-29T09:38:59;6.83;;;2.23;;
69910;SDS011;57194;50.156;14.518;2022-07-29T09:41:25;8.57;;;2.55;;
69910;SDS011;57194;50.156;14.518;2022-07-29T09:43:57;9.82;;;2.60;;
69910;SDS011;57194;50.156;14.518;2022-07-29T09:46:24;8.10;;;2.88;;
69910;SDS011;57194;50.156;14.518;2022-07-29T09:49:09;7.22;;;2.40;;
69910;SDS011;57194;50.156;14.518;2022-07-29T09:51:36;9.43;;;3.03;;
69910;SDS011;57194;50.156;14.518;2022-07-29T09:54:02;5.93;;;2.65;;
69910;SDS011;57194;50.156;14.518;2022-07-29T09:56:46;9.68;;;3.00;;
69910;SDS011;57194;50.156;14.518;2022-07-29T09:59:12;7.18;;;2.70;;
69910;SDS011;57194;50.156;14.518;2022-07-29T10:01:39;8.80;;;2.67;;
69910;SDS011;57194;50.156;14.518;2022-07-29T10:04:04;8.90;;;2.75;;
69910;SDS011;57194;50.156;14.518;2022-07-29T10:06:30;6.40;;;2.80;;
69910;SDS011;57194;50.156;14.518;2022-07-29T10:09:06;6.23;;;2.53;;
69910;SDS011;57194;50.156;14.518;2022-07-29T10:11:35;6.57;;;2.42;;
69910;SDS011;57194;50.156;14.518;2022-07-29T10:14:01;8.03;;;3.23;;
69910;SDS011;57194;50.156;14.518;2022-07-29T10:16:27;10.02;;;2.80;;
69910;SDS011;57194;50.156;14.518;2022-07-29T10:18:57;8.48;;;2.90;;
69910;SDS011;57194;50.156;14.518;2022-07-29T10:21:24;10.03;;;3.00;;
69910;SDS011;57194;50.156;14.518;2022-07-29T10:23:50;7.13;;;2.88;;
69910;SDS011;57194;50.156;14.518;2022-07-29T10:26:16;5.93;;;2.83;;
69910;SDS011;57194;50.156;14.518;2022-07-29T10:28:42;7.00;;;2.50;;
69910;SDS011;57194;50.156;14.518;2022-07-29T10:31:08;10.63;;;2.60;;
69910;SDS011;57194;50.156;14.518;2022-07-29T10:33:58;5.88;;;2.80;;
69910;SDS011;57194;50.156;14.518;2022-07-29T10:36:41;7.80;;;2.67;;
69910;SDS011;57194;50.156;14.518;2022-07-29T10:44:38;11.70;;;2.55;;
69910;SDS011;57194;50.156;14.518;2022-07-29T10:47:05;7.95;;;2.78;;
69910;SDS011;57194;50.156;14.518;2022-07-29T10:49:31;8.40;;;2.90;;
69910;SDS011;57194;50.156;14.518;2022-07-29T10:52:06;6.43;;;2.47;;
69910;SDS011;57194;50.156;14.518;2022-07-29T11:05:09;6.35;;;2.50;;
69910;SDS011;57194;50.156;14.518;2022-07-29T11:07:39;5.43;;;2.70;;
69910;SDS011;57194;50.156;14.518;2022-07-29T11:10:25;8.35;;;2.72;;
69910;SDS011;57194;50.156;14.518;2022-07-29T11:12:50;8.43;;;2.70;;
69910;SDS011;57194;50.156;14.518;2022-07-29T11:15:17;10.13;;;2.67;;
69910;SDS011;57194;50.156;14.518;2022-07-29T11:31:31;8.73;;;2.20;;
69910;SDS011;57194;50.156;14.518;2022-07-29T11:39:34;6.40;;;2.50;;
69910;SDS011;57194;50.156;14.518;2022-07-29T11:42:36;5.88;;;2.60;;
69910;SDS011;57194;50.156;14.518;2022-07-29T11:47:32;6.25;;;2.60;;
69910;SDS011;57194;50.156;14.518;2022-07-29T11:49:59;9.15;;;2.72;;
69910;SDS011;57194;50.156;14.518;2022-07-29T11:53:09;6.27;;;2.90;;
69910;SDS011;57194;50.156;14.518;2022-07-29T11:55:18;7.03;;;2.55;;
69910;SDS011;57194;50.156;14.518;2022-07-29T11:57:48;7.68;;;2.60;;
69910;SDS011;57194;50.156;14.518;2022-07-29T12:02:54;7.63;;;2.63;;
69910;SDS011;57194;50.156;14.518;2022-07-29T12:05:21;6.27;;;3.03;;
69910;SDS011;57194;50.156;14.518;2022-07-29T12:07:46;5.78;;;2.45;;
69910;SDS011;57194;50.156;14.518;2022-07-29T12:10:13;7.63;;;2.60;;
69910;SDS011;57194;50.156;14.518;2022-07-29T12:12:39;6.18;;;2.75;;
69910;SDS011;57194;50.156;14.518;2022-07-29T12:15:14;8.73;;;2.90;;
69910;SDS011;57194;50.156;14.518;2022-07-29T12:17:42;7.10;;;2.80;;
69910;SDS011;57194;50.156;14.518;2022-07-29T12:20:08;6.55;;;2.75;;
69910;SDS011;57194;50.156;14.518;2022-07-29T12:22:37;5.20;;;2.67;;
69910;SDS011;57194;50.156;14.518;2022-07-29T12:25:10;6.57;;;3.00;;
69910;SDS011;57194;50.156;14.518;2022-07-29T12:27:39;7.28;;;3.03;;
69910;SDS011;57194;50.156;14.518;2022-07-29T12:30:06;5.25;;;2.60;;
69910;SDS011;57194;50.156;14.518;2022-07-29T12:32:37;6.83;;;2.67;;
69910;SDS011;57194;50.156;14.518;2022-07-29T12:35:09;6.57;;;2.47;;
69910;SDS011;57194;50.156;14.518;2022-07-29T12:37:37;5.50;;;2.90;;
69910;SDS011;57194;50.156;14.518;2022-07-29T12:40:03;6.70;;;2.78;;
69910;SDS011;57194;50.156;14.518;2022-07-29T12:42:30;7.20;;;3.10;;
69910;SDS011;57194;50.156;14.518;2022-07-29T12:44:56;5.10;;;3.00;;
69910;SDS011;57194;50.156;14.518;2022-07-29T12:47:22;6.28;;;3.00;;
69910;SDS011;57194;50.156;14.518;2022-07-29T12:49:47;5.27;;;2.87;;
69910;SDS011;57194;50.156;14.518;2022-07-29T12:55:09;5.90;;;2.70;;
69910;SDS011;57194;50.156;14.518;2022-07-29T12:57:49;8.00;;;2.65;;
69910;SDS011;57194;50.156;14.518;2022-07-29T13:00:21;7.10;;;2.65;;
69910;SDS011;57194;50.156;14.518;2022-07-29T13:02:55;5.30;;;2.88;;
69910;SDS011;57194;50.156;14.518;2022-07-29T13:05:22;11.50;;;3.08;;
69910;SDS011;57194;50.156;14.518;2022-07-29T13:07:47;7.27;;;2.80;;
69910;SDS011;57194;50.156;14.518;2022-07-29T13:10:17;6.67;;;2.80;;
69910;SDS011;57194;50.156;14.518;2022-07-29T13:13:02;6.90;;;2.63;;
69910;SDS011;57194;50.156;14.518;2022-07-29T13:15:28;5.38;;;2.65;;
69910;SDS011;57194;50.156;14.518;2022-07-29T13:17:54;6.43;;;2.60;;
69910;SDS011;57194;50.156;14.518;2022-07-29T13:20:23;6.93;;;2.50;;
69910;SDS011;57194;50.156;14.518;2022-07-29T13:22:49;6.95;;;3.03;;
69910;SDS011;57194;50.156;14.518;2022-07-29T13:25:15;5.03;;;2.90;;
69910;SDS011;57194;50.156;14.518;2022-07-29T13:27:49;7.72;;;2.55;;
69910;SDS011;57194;50.156;14.518;2022-07-29T13:30:14;4.47;;;3.03;;
69910;SDS011;57194;50.156;14.518;2022-07-29T13:32:40;6.83;;;2.93;;
69910;SDS011;57194;50.156;14.518;2022-07-29T13:35:06;9.03;;;3.20;;
69910;SDS011;57194;50.156;14.518;2022-07-29T13:37:33;8.52;;;2.78;;
69910;SDS011;57194;50.156;14.518;2022-07-29T13:39:59;4.28;;;2.70;;
69910;SDS011;57194;50.156;14.518;2022-07-29T13:42:27;7.90;;;3.00;;
69910;SDS011;57194;50.156;14.518;2022-07-29T13:44:53;5.43;;;2.70;;
69910;SDS011;57194;50.156;14.518;2022-07-29T13:47:19;5.07;;;2.50;;
69910;SDS011;57194;50.156;14.518;2022-07-29T13:49:45;6.20;;;2.53;;
69910;SDS011;57194;50.156;14.518;2022-07-29T13:52:11;5.50;;;2.90;;
69910;SDS011;57194;50.156;14.518;2022-07-29T13:54:36;7.53;;;2.83;;
69910;SDS011;57194;50.156;14.518;2022-07-29T13:57:03;5.22;;;2.90;;
69910;SDS011;57194;50.156;14.518;2022-07-29T13:59:29;3.80;;;2.72;;
69910;SDS011;57194;50.156;14.518;2022-07-29T14:01:54;7.70;;;2.90;;
69910;SDS011;57194;50.156;14.518;2022-07-29T14:04:20;7.00;;;2.93;;
69910;SDS011;57194;50.156;14.518;2022-07-29T14:06:46;4.45;;;2.80;;
69910;SDS011;57194;50.156;14.518;2022-07-29T14:09:12;3.90;;;2.47;;
69910;SDS011;57194;50.156;14.518;2022-07-29T14:11:37;5.30;;;2.60;;
69910;SDS011;57194;50.156;14.518;2022-07-29T14:14:03;7.20;;;2.70;;
69910;SDS011;57194;50.156;14.518;2022-07-29T14:16:28;6.10;;;2.70;;
69910;SDS011;57194;50.156;14.518;2022-07-29T14:18:54;4.80;;;2.53;;
69910;SDS011;57194;50.156;14.518;2022-07-29T14:21:19;4.87;;;2.70;;
69910;SDS011;57194;50.156;14.518;2022-07-29T14:23:44;4.07;;;2.50;;
69910;SDS011;57194;50.156;14.518;2022-07-29T14:26:10;5.17;;;2.30;;
69910;SDS011;57194;50.156;14.518;2022-07-29T14:28:35;4.07;;;2.10;;
69910;SDS011;57194;50.156;14.518;2022-07-29T14:31:00;4.60;;;2.33;;
69910;SDS011;57194;50.156;14.518;2022-07-29T14:33:26;6.40;;;2.47;;
69910;SDS011;57194;50.156;14.518;2022-07-29T14:35:51;5.35;;;2.25;;
69910;SDS011;57194;50.156;14.518;2022-07-29T14:38:16;7.20;;;2.43;;
69910;SDS011;57194;50.156;14.518;2022-07-29T14:40:42;3.73;;;2.30;;
69910;SDS011;57194;50.156;14.518;2022-07-29T14:43:07;5.27;;;2.80;;
69910;SDS011;57194;50.156;14.518;2022-07-29T14:45:33;6.43;;;2.50;;
69910;SDS011;57194;50.156;14.518;2022-07-29T14:47:58;5.25;;;2.72;;
69910;SDS011;57194;50.156;14.518;2022-07-29T14:50:24;6.80;;;2.60;;
69910;SDS011;57194;50.156;14.518;2022-07-29T14:52:51;4.77;;;2.40;;
69910;SDS011;57194;50.156;14.518;2022-07-29T14:55:16;4.80;;;2.35;;
69910;SDS011;57194;50.156;14.518;2022-07-29T14:57:42;5.57;;;2.60;;
69910;SDS011;57194;50.156;14.518;2022-07-29T15:00:07;5.07;;;2.83;;
69910;SDS011;57194;50.156;14.518;2022-07-29T15:02:34;6.75;;;2.80;;
69910;SDS011;57194;50.156;14.518;2022-07-29T15:04:59;5.40;;;2.77;;
69910;SDS011;57194;50.156;14.518;2022-07-29T15:07:25;5.55;;;2.70;;
69910;SDS011;57194;50.156;14.518;2022-07-29T15:09:50;3.47;;;2.43;;
69910;SDS011;57194;50.156;14.518;2022-07-29T15:12:16;5.77;;;2.70;;
69910;SDS011;57194;50.156;14.518;2022-07-29T15:14:41;7.88;;;3.65;;
69910;SDS011;57194;50.156;14.518;2022-07-29T15:17:07;5.17;;;2.83;;
69910;SDS011;57194;50.156;14.518;2022-07-29T15:19:32;13.57;;;2.87;;
69910;SDS011;57194;50.156;14.518;2022-07-29T15:21:57;6.13;;;2.63;;
69910;SDS011;57194;50.156;14.518;2022-07-29T15:24:23;7.80;;;2.80;;
69910;SDS011;57194;50.156;14.518;2022-07-29T15:26:48;5.73;;;2.70;;
69910;SDS011;57194;50.156;14.518;2022-07-29T15:29:14;8.00;;;2.87;;
69910;SDS011;57194;50.156;14.518;2022-07-29T15:31:40;4.88;;;2.63;;